sensor_id;sensor_type;location;lat;lon;timestamp;pressure;altitude;pressure_sealevel;temperature;humidity
8641;BME280;4358;42.100;25.222;2023-04-02T00:01:16;99123.38;;;9.93;100.00
8641;BME280;4358;42.100;25.222;2023-04-02T00:04:19;99127.59;;;9.95;100.00
8641;BME280;4358;42.100;25.222;2023-04-02T00:06:52;99119.78;;;9.94;100.00
8641;BME280;4358;42.100;25.222;2023-04-02T00:09:28;99118.53;;;9.87;100.00
8641;BME280;4358;42.100;25.222;2023-04-02T00:11:57;99122.47;;;9.70;100.00
8641;BME280;4358;42.100;25.222;2023-04-02T00:14:27;99130.31;;;9.71;100.00
8641;BME280;4358;42.100;25.222;2023-04-02T00:16:55;99119.72;;;9.71;100.00
8641;BME280;4358;42.100;25.222;2023-04-02T00:19:29;99123.22;;;9.72;100.00
8641;BME280;4358;42.100;25.222;2023-04-02T00:21:58;99129.50;;;9.82;100.00
8641;BME280;4358;42.100;25.222;2023-04-02T00:24:26;99137.19;;;9.85;100.00
8641;BME280;4358;42.100;25.222;2023-04-02T00:26:54;99127.44;;;9.86;100.00
8641;BME280;4358;42.100;25.222;2023-04-02T00:29:21;99133.09;;;9.81;100.00
8641;BME280;4358;42.100;25.222;2023-04-02T00:31:50;99121.25;;;9.74;100.00
8641;BME280;4358;42.100;25.222;2023-04-02T00:34:21;99113.31;;;9.63;100.00
8641;BME280;4358;42.100;25.222;2023-04-02T00:36:49;99108.97;;;9.62;100.00
8641;BME280;4358;42.100;25.222;2023-04-02T00:39:20;99111.38;;;9.65;100.00
8641;BME280;4358;42.100;25.222;2023-04-02T00:41:48;99107.66;;;9.67;100.00
8641;BME280;4358;42.100;25.222;2023-04-02T00:44:19;99123.78;;;9.64;100.00
8641;BME280;4358;42.100;25.222;2023-04-02T00:46:48;99117.47;;;9.54;100.00
8641;BME280;4358;42.100;25.222;2023-04-02T00:49:22;99124.78;;;9.40;100.00
8641;BME280;4358;42.100;25.222;2023-04-02T00:51:55;99139.41;;;9.32;100.00
8641;BME280;4358;42.100;25.222;2023-04-02T00:54:26;99137.97;;;9.28;100.00
8641;BME280;4358;42.100;25.222;2023-04-02T00:56:56;99136.25;;;9.27;100.00
8641;BME280;4358;42.100;25.222;2023-04-02T00:59:27;99143.25;;;9.28;100.00
8641;BME280;4358;42.100;25.222;2023-04-02T01:01:57;99130.00;;;9.28;100.00
8641;BME280;4358;42.100;25.222;2023-04-02T01:04:32;99123.75;;;9.29;100.00
8641;BME280;4358;42.100;25.222;2023-04-02T01:07:03;99123.31;;;9.35;100.00
8641;BME280;4358;42.100;25.222;2023-04-02T01:09:47;99118.03;;;9.35;100.00
8641;BME280;4358;42.100;25.222;2023-04-02T01:12:29;99118.38;;;9.31;100.00
8641;BME280;4358;42.100;25.222;2023-04-02T01:15:09;99110.03;;;9.24;100.00
8641;BME280;4358;42.100;25.222;2023-04-02T01:17:53;99117.22;;;9.22;100.00
8641;BME280;4358;42.100;25.222;2023-04-02T01:20:50;99131.53;;;9.20;100.00
8641;BME280;4358;42.100;25.222;2023-04-02T01:23:27;99127.31;;;9.17;100.00
8641;BME280;4358;42.100;25.222;2023-04-02T01:25:59;99142.00;;;9.21;100.00
8641;BME280;4358;42.100;25.222;2023-04-02T01:28:41;99140.34;;;9.20;100.00
8641;BME280;4358;42.100;25.222;2023-04-02T01:31:11;99143.50;;;9.25;100.00
8641;BME280;4358;42.100;25.222;2023-04-02T01:33:40;99148.53;;;9.28;100.00
8641;BME280;4358;42.100;25.222;2023-04-02T01:36:10;99146.19;;;9.37;100.00
8641;BME280;4358;42.100;25.222;2023-04-02T01:38:46;99149.66;;;9.37;100.00
8641;BME280;4358;42.100;25.222;2023-04-02T01:41:20;99138.69;;;9.30;100.00
8641;BME280;4358;42.100;25.222;2023-04-02T01:43:53;99139.47;;;9.44;100.00
8641;BME280;4358;42.100;25.222;2023-04-02T01:46:24;99146.34;;;9.46;100.00
8641;BME280;4358;42.100;25.222;2023-04-02T01:48:52;99151.25;;;9.40;100.00
8641;BME280;4358;42.100;25.222;2023-04-02T01:51:26;99138.50;;;9.45;100.00
8641;BME280;4358;42.100;25.222;2023-04-02T01:53:53;99140.25;;;9.57;100.00
8641;BME280;4358;42.100;25.222;2023-04-02T01:56:20;99144.63;;;9.69;100.00
8641;BME280;4358;42.100;25.222;2023-04-02T01:58:48;99144.84;;;9.66;100.00
8641;BME280;4358;42.100;25.222;2023-04-02T02:01:18;99142.94;;;9.68;100.00
8641;BME280;4358;42.100;25.222;2023-04-02T02:03:48;99138.97;;;9.62;100.00
8641;BME280;4358;42.100;25.222;2023-04-02T02:06:17;99145.75;;;9.54;100.00
8641;BME280;4358;42.100;25.222;2023-04-02T02:08:47;99140.81;;;9.49;100.00
8641;BME280;4358;42.100;25.222;2023-04-02T02:11:17;99137.09;;;9.52;100.00
8641;BME280;4358;42.100;25.222;2023-04-02T02:13:46;99131.75;;;9.41;100.00
8641;BME280;4358;42.100;25.222;2023-04-02T02:16:17;99115.06;;;9.27;100.00
8641;BME280;4358;42.100;25.222;2023-04-02T02:18:47;99129.47;;;9.36;100.00
8641;BME280;4358;42.100;25.222;2023-04-02T02:21:22;99126.47;;;9.41;100.00
8641;BME280;4358;42.100;25.222;2023-04-02T02:23:52;99120.72;;;9.47;100.00
8641;BME280;4358;42.100;25.222;2023-04-02T02:26:21;99118.31;;;9.55;100.00
8641;BME280;4358;42.100;25.222;2023-04-02T02:28:50;99120.03;;;9.56;100.00
8641;BME280;4358;42.100;25.222;2023-04-02T02:31:23;99110.72;;;9.50;100.00
8641;BME280;4358;42.100;25.222;2023-04-02T02:33:57;99108.81;;;9.52;100.00
8641;BME280;4358;42.100;25.222;2023-04-02T02:36:30;99108.19;;;9.49;100.00
8641;BME280;4358;42.100;25.222;2023-04-02T02:39:01;99109.44;;;9.32;100.00
8641;BME280;4358;42.100;25.222;2023-04-02T02:41:35;99107.88;;;9.29;100.00
8641;BME280;4358;42.100;25.222;2023-04-02T02:44:11;99109.56;;;9.30;100.00
8641;BME280;4358;42.100;25.222;2023-04-02T02:46:44;99094.81;;;9.15;100.00
8641;BME280;4358;42.100;25.222;2023-04-02T02:49:14;99096.50;;;9.16;100.00
8641;BME280;4358;42.100;25.222;2023-04-02T02:51:45;99034.78;;;8.92;100.00
8641;BME280;4358;42.100;25.222;2023-04-02T02:54:14;99103.34;;;9.43;100.00
8641;BME280;4358;42.100;25.222;2023-04-02T02:56:46;99086.75;;;9.41;100.00
8641;BME280;4358;42.100;25.222;2023-04-02T02:59:18;99111.34;;;9.54;100.00
8641;BME280;4358;42.100;25.222;2023-04-02T03:01:47;99112.63;;;9.48;100.00
8641;BME280;4358;42.100;25.222;2023-04-02T03:04:18;99103.84;;;9.48;100.00
8641;BME280;4358;42.100;25.222;2023-04-02T03:06:47;99105.78;;;9.46;100.00
8641;BME280;4358;42.100;25.222;2023-04-02T03:09:21;99119.19;;;9.55;100.00
8641;BME280;4358;42.100;25.222;2023-04-02T03:11:58;99126.81;;;9.71;100.00
8641;BME280;4358;42.100;25.222;2023-04-02T03:14:31;99134.78;;;9.82;100.00
8641;BME280;4358;42.100;25.222;2023-04-02T03:17:05;99138.66;;;9.89;100.00
8641;BME280;4358;42.100;25.222;2023-04-02T03:19:37;99140.13;;;9.93;100.00
8641;BME280;4358;42.100;25.222;2023-04-02T03:22:12;99146.63;;;10.00;100.00
8641;BME280;4358;42.100;25.222;2023-04-02T03:24:45;99148.91;;;10.05;100.00
8641;BME280;4358;42.100;25.222;2023-04-02T03:27:17;99148.81;;;10.06;100.00
8641;BME280;4358;42.100;25.222;2023-04-02T03:29:52;99154.00;;;10.08;100.00
8641;BME280;4358;42.100;25.222;2023-04-02T03:32:26;99145.69;;;10.12;100.00
8641;BME280;4358;42.100;25.222;2023-04-02T03:34:57;99146.50;;;10.26;100.00
8641;BME280;4358;42.100;25.222;2023-04-02T03:37:29;99141.66;;;10.42;100.00
8641;BME280;4358;42.100;25.222;2023-04-02T03:40:01;99146.97;;;10.64;100.00
8641;BME280;4358;42.100;25.222;2023-04-02T03:42:39;99139.94;;;10.85;100.00
8641;BME280;4358;42.100;25.222;2023-04-02T03:45:13;99151.28;;;10.98;98.84
8641;BME280;4358;42.100;25.222;2023-04-02T03:47:46;99147.16;;;11.05;99.25
8641;BME280;4358;42.100;25.222;2023-04-02T03:50:19;99149.56;;;11.09;98.38
8641;BME280;4358;42.100;25.222;2023-04-02T03:52:49;99151.97;;;11.12;98.79
8641;BME280;4358;42.100;25.222;2023-04-02T03:55:19;99149.19;;;11.13;96.71
8641;BME280;4358;42.100;25.222;2023-04-02T03:57:54;99156.53;;;11.21;97.33
8641;BME280;4358;42.100;25.222;2023-04-02T04:00:31;99158.34;;;11.20;97.29
8641;BME280;4358;42.100;25.222;2023-04-02T04:03:09;99159.72;;;11.15;98.35
8641;BME280;4358;42.100;25.222;2023-04-02T04:05:43;99164.78;;;11.07;99.42
8641;BME280;4358;42.100;25.222;2023-04-02T04:08:16;99158.25;;;10.99;100.00
8641;BME280;4358;42.100;25.222;2023-04-02T04:10:44;99161.75;;;11.00;100.00
8641;BME280;4358;42.100;25.222;2023-04-02T04:13:14;99151.91;;;10.80;100.00
8641;BME280;4358;42.100;25.222;2023-04-02T04:15:48;99159.28;;;10.65;100.00
8641;BME280;4358;42.100;25.222;2023-04-02T04:18:25;99155.03;;;10.62;100.00
8641;BME280;4358;42.100;25.222;2023-04-02T04:21:00;99165.31;;;10.56;100.00
8641;BME280;4358;42.100;25.222;2023-04-02T04:23:31;99171.66;;;10.42;100.00
8641;BME280;4358;42.100;25.222;2023-04-02T04:26:02;99172.03;;;10.38;100.00
8641;BME280;4358;42.100;25.222;2023-04-02T04:28:39;99172.75;;;10.29;100.00
8641;BME280;4358;42.100;25.222;2023-04-02T04:31:13;99183.22;;;10.19;100.00
8641;BME280;4358;42.100;25.222;2023-04-02T04:33:48;99189.91;;;10.12;100.00
8641;BME280;4358;42.100;25.222;2023-04-02T04:36:23;99191.72;;;10.11;100.00
8641;BME280;4358;42.100;25.222;2023-04-02T04:38:54;99194.22;;;10.26;100.00
8641;BME280;4358;42.100;25.222;2023-04-02T04:41:27;99205.69;;;10.48;100.00
8641;BME280;4358;42.100;25.222;2023-04-02T04:44:01;99204.84;;;10.59;100.00
8641;BME280;4358;42.100;25.222;2023-04-02T04:46:36;99209.78;;;10.63;100.00
8641;BME280;4358;42.100;25.222;2023-04-02T04:49:09;99208.94;;;10.63;100.00
8641;BME280;4358;42.100;25.222;2023-04-02T04:51:41;99208.81;;;10.53;100.00
8641;BME280;4358;42.100;25.222;2023-04-02T04:54:11;99202.94;;;10.50;100.00
8641;BME280;4358;42.100;25.222;2023-04-02T04:56:39;99210.06;;;10.60;100.00
8641;BME280;4358;42.100;25.222;2023-04-02T04:59:14;99208.00;;;10.64;100.00
8641;BME280;4358;42.100;25.222;2023-04-02T05:01:46;99208.59;;;10.79;100.00
8641;BME280;4358;42.100;25.222;2023-04-02T05:04:18;99225.50;;;10.78;100.00
8641;BME280;4358;42.100;25.222;2023-04-02T05:06:51;99219.59;;;10.85;100.00
8641;BME280;4358;42.100;25.222;2023-04-02T05:09:24;99224.88;;;10.85;100.00
8641;BME280;4358;42.100;25.222;2023-04-02T05:11:59;99218.25;;;10.91;100.00
8641;BME280;4358;42.100;25.222;2023-04-02T05:14:32;99221.50;;;10.94;100.00
8641;BME280;4358;42.100;25.222;2023-04-02T05:17:04;99227.91;;;11.03;100.00
8641;BME280;4358;42.100;25.222;2023-04-02T05:19:39;99227.75;;;11.04;100.00
8641;BME280;4358;42.100;25.222;2023-04-02T05:22:13;99220.53;;;10.95;100.00
8641;BME280;4358;42.100;25.222;2023-04-02T05:24:50;99204.13;;;10.79;100.00
8641;BME280;4358;42.100;25.222;2023-04-02T05:27:25;99226.69;;;10.74;100.00
8641;BME280;4358;42.100;25.222;2023-04-02T05:29:58;99212.34;;;10.65;100.00
8641;BME280;4358;42.100;25.222;2023-04-02T05:32:30;99211.38;;;10.66;100.00
8641;BME280;4358;42.100;25.222;2023-04-02T05:35:00;99187.00;;;10.50;100.00
8641;BME280;4358;42.100;25.222;2023-04-02T05:37:30;99206.69;;;10.81;100.00
8641;BME280;4358;42.100;25.222;2023-04-02T05:40:02;99223.09;;;10.97;100.00
8641;BME280;4358;42.100;25.222;2023-04-02T05:42:37;99222.22;;;11.08;100.00
8641;BME280;4358;42.100;25.222;2023-04-02T05:45:18;99224.13;;;11.28;100.00
8641;BME280;4358;42.100;25.222;2023-04-02T05:47:47;99229.78;;;11.45;100.00
8641;BME280;4358;42.100;25.222;2023-04-02T05:50:22;99232.16;;;11.60;100.00
8641;BME280;4358;42.100;25.222;2023-04-02T05:52:55;99239.00;;;11.73;100.00
8641;BME280;4358;42.100;25.222;2023-04-02T05:55:33;99243.44;;;11.84;100.00
8641;BME280;4358;42.100;25.222;2023-04-02T05:58:05;99246.72;;;11.87;100.00
8641;BME280;4358;42.100;25.222;2023-04-02T06:00:57;99255.66;;;11.86;100.00
8641;BME280;4358;42.100;25.222;2023-04-02T06:03:32;99250.06;;;11.89;100.00
8641;BME280;4358;42.100;25.222;2023-04-02T06:06:09;99240.06;;;11.93;100.00
8641;BME280;4358;42.100;25.222;2023-04-02T06:08:40;99252.31;;;12.05;100.00
8641;BME280;4358;42.100;25.222;2023-04-02T06:11:11;99237.72;;;12.20;99.60
8641;BME280;4358;42.100;25.222;2023-04-02T06:13:39;99245.19;;;12.47;95.45
8641;BME280;4358;42.100;25.222;2023-04-02T06:16:06;99242.19;;;12.61;94.80
8641;BME280;4358;42.100;25.222;2023-04-02T06:18:35;99240.25;;;12.63;94.88
8641;BME280;4358;42.100;25.222;2023-04-02T06:21:04;99246.66;;;12.82;94.09
8641;BME280;4358;42.100;25.222;2023-04-02T06:23:35;99258.34;;;12.90;94.51
8641;BME280;4358;42.100;25.222;2023-04-02T06:26:08;99260.59;;;12.95;99.14
8641;BME280;4358;42.100;25.222;2023-04-02T06:28:40;99257.41;;;13.01;100.00
8641;BME280;4358;42.100;25.222;2023-04-02T06:31:14;99255.38;;;13.14;99.87
8641;BME280;4358;42.100;25.222;2023-04-02T06:33:44;99258.28;;;13.41;98.55
8641;BME280;4358;42.100;25.222;2023-04-02T06:36:12;99254.41;;;13.65;91.68
8641;BME280;4358;42.100;25.222;2023-04-02T06:38:39;99258.50;;;13.88;89.61
8641;BME280;4358;42.100;25.222;2023-04-02T06:41:13;99260.06;;;14.10;85.14
8641;BME280;4358;42.100;25.222;2023-04-02T06:43:44;99265.97;;;14.23;83.64
8641;BME280;4358;42.100;25.222;2023-04-02T06:46:18;99275.09;;;14.39;81.86
8641;BME280;4358;42.100;25.222;2023-04-02T06:48:47;99274.53;;;14.46;81.75
8641;BME280;4358;42.100;25.222;2023-04-02T06:51:19;99275.25;;;14.48;78.92
8641;BME280;4358;42.100;25.222;2023-04-02T06:53:49;99280.28;;;14.60;79.51
8641;BME280;4358;42.100;25.222;2023-04-02T06:56:21;99268.78;;;14.60;78.89
8641;BME280;4358;42.100;25.222;2023-04-02T06:58:51;99268.59;;;14.61;80.70
8641;BME280;4358;42.100;25.222;2023-04-02T07:01:21;99274.66;;;14.63;81.92
8641;BME280;4358;42.100;25.222;2023-04-02T07:03:49;99281.13;;;14.70;71.01
8641;BME280;4358;42.100;25.222;2023-04-02T07:06:19;99293.03;;;14.76;70.73
8641;BME280;4358;42.100;25.222;2023-04-02T07:08:47;99287.56;;;14.77;67.90
8641;BME280;4358;42.100;25.222;2023-04-02T07:11:14;99290.94;;;14.79;66.10
8641;BME280;4358;42.100;25.222;2023-04-02T07:13:42;99292.63;;;14.80;65.79
8641;BME280;4358;42.100;25.222;2023-04-02T07:16:13;99287.13;;;14.82;67.41
8641;BME280;4358;42.100;25.222;2023-04-02T07:18:41;99289.22;;;14.88;67.67
8641;BME280;4358;42.100;25.222;2023-04-02T07:21:08;99294.78;;;15.04;69.57
8641;BME280;4358;42.100;25.222;2023-04-02T07:23:36;99298.75;;;15.00;65.04
8641;BME280;4358;42.100;25.222;2023-04-02T07:26:04;99298.22;;;14.97;65.51
8641;BME280;4358;42.100;25.222;2023-04-02T07:28:31;99303.25;;;15.00;67.13
8641;BME280;4358;42.100;25.222;2023-04-02T07:30:59;99306.59;;;15.11;69.85
8641;BME280;4358;42.100;25.222;2023-04-02T07:33:28;99309.09;;;15.22;68.19
8641;BME280;4358;42.100;25.222;2023-04-02T07:35:57;99307.09;;;15.24;67.10
8641;BME280;4358;42.100;25.222;2023-04-02T07:38:23;99305.13;;;15.26;63.67
8641;BME280;4358;42.100;25.222;2023-04-02T07:40:52;99316.81;;;15.25;62.21
8641;BME280;4358;42.100;25.222;2023-04-02T07:43:19;99295.31;;;15.17;62.02
8641;BME280;4358;42.100;25.222;2023-04-02T07:45:48;99307.06;;;15.34;62.89
8641;BME280;4358;42.100;25.222;2023-04-02T07:48:15;99313.81;;;15.38;60.01
8641;BME280;4358;42.100;25.222;2023-04-02T07:50:42;99306.72;;;15.47;62.40
8641;BME280;4358;42.100;25.222;2023-04-02T07:53:25;99316.03;;;15.52;61.47
8641;BME280;4358;42.100;25.222;2023-04-02T07:55:55;99316.28;;;15.59;61.26
8641;BME280;4358;42.100;25.222;2023-04-02T07:58:22;99300.53;;;15.56;61.41
8641;BME280;4358;42.100;25.222;2023-04-02T08:00:49;99310.94;;;15.59;61.99
8641;BME280;4358;42.100;25.222;2023-04-02T08:03:16;99307.56;;;15.57;61.29
8641;BME280;4358;42.100;25.222;2023-04-02T08:05:42;99305.44;;;15.51;61.76
8641;BME280;4358;42.100;25.222;2023-04-02T08:08:09;99310.25;;;15.47;59.84
8641;BME280;4358;42.100;25.222;2023-04-02T08:10:36;99307.56;;;15.47;61.48
8641;BME280;4358;42.100;25.222;2023-04-02T08:13:04;99307.03;;;15.53;63.07
8641;BME280;4358;42.100;25.222;2023-04-02T08:15:33;99311.41;;;15.72;63.12
8641;BME280;4358;42.100;25.222;2023-04-02T08:17:59;99305.38;;;15.70;58.97
8641;BME280;4358;42.100;25.222;2023-04-02T08:20:26;99312.13;;;15.74;58.94
8641;BME280;4358;42.100;25.222;2023-04-02T08:22:53;99305.16;;;15.81;57.87
8641;BME280;4358;42.100;25.222;2023-04-02T08:25:20;99300.28;;;15.94;56.48
8641;BME280;4358;42.100;25.222;2023-04-02T08:27:47;99296.81;;;16.12;57.69
8641;BME280;4358;42.100;25.222;2023-04-02T08:30:16;99299.22;;;16.23;56.53
8641;BME280;4358;42.100;25.222;2023-04-02T08:32:43;99305.97;;;16.27;56.40
8641;BME280;4358;42.100;25.222;2023-04-02T08:35:11;99300.78;;;16.25;55.96
8641;BME280;4358;42.100;25.222;2023-04-02T08:37:39;99299.09;;;16.42;59.20
8641;BME280;4358;42.100;25.222;2023-04-02T08:40:09;99298.75;;;16.45;57.88
8641;BME280;4358;42.100;25.222;2023-04-02T08:42:46;99303.59;;;16.59;55.28
8641;BME280;4358;42.100;25.222;2023-04-02T08:45:20;99299.31;;;16.66;54.86
8641;BME280;4358;42.100;25.222;2023-04-02T08:47:49;99289.28;;;16.68;55.02
8641;BME280;4358;42.100;25.222;2023-04-02T08:50:25;99287.59;;;16.67;54.79
8641;BME280;4358;42.100;25.222;2023-04-02T08:52:55;99290.25;;;16.85;52.58
8641;BME280;4358;42.100;25.222;2023-04-02T08:55:30;99287.09;;;16.89;53.24
8641;BME280;4358;42.100;25.222;2023-04-02T08:58:07;99290.91;;;17.13;52.34
8641;BME280;4358;42.100;25.222;2023-04-02T09:00:41;99290.91;;;17.13;53.18
8641;BME280;4358;42.100;25.222;2023-04-02T09:03:16;99293.47;;;16.97;50.68
8641;BME280;4358;42.100;25.222;2023-04-02T09:05:45;99277.94;;;16.74;51.62
8641;BME280;4358;42.100;25.222;2023-04-02T09:08:15;99301.88;;;16.76;51.94
8641;BME280;4358;42.100;25.222;2023-04-02T09:10:49;99282.28;;;16.75;51.49
8641;BME280;4358;42.100;25.222;2023-04-02T09:13:20;99283.81;;;16.78;51.53
8641;BME280;4358;42.100;25.222;2023-04-02T09:15:54;99280.63;;;16.74;51.23
8641;BME280;4358;42.100;25.222;2023-04-02T09:18:22;99296.53;;;16.76;50.69
8641;BME280;4358;42.100;25.222;2023-04-02T09:20:48;99299.56;;;16.81;50.34
8641;BME280;4358;42.100;25.222;2023-04-02T09:23:17;99291.44;;;16.90;52.26
8641;BME280;4358;42.100;25.222;2023-04-02T09:25:47;99287.19;;;17.06;51.66
8641;BME280;4358;42.100;25.222;2023-04-02T09:28:14;99294.19;;;16.99;49.61
8641;BME280;4358;42.100;25.222;2023-04-02T09:30:53;99293.47;;;16.97;51.13
8641;BME280;4358;42.100;25.222;2023-04-02T09:33:40;99288.50;;;17.02;52.83
8641;BME280;4358;42.100;25.222;2023-04-02T09:36:18;99291.59;;;17.15;51.30
8641;BME280;4358;42.100;25.222;2023-04-02T09:39:00;99289.66;;;17.33;50.30
8641;BME280;4358;42.100;25.222;2023-04-02T09:41:32;99284.06;;;17.52;50.33
8641;BME280;4358;42.100;25.222;2023-04-02T09:44:17;99280.19;;;17.89;50.05
8641;BME280;4358;42.100;25.222;2023-04-02T09:46:54;99270.84;;;18.09;47.97
8641;BME280;4358;42.100;25.222;2023-04-02T09:49:26;99278.22;;;18.23;47.45
8641;BME280;4358;42.100;25.222;2023-04-02T09:52:06;99271.50;;;18.27;47.37
8641;BME280;4358;42.100;25.222;2023-04-02T09:54:34;99272.88;;;18.31;47.31
8641;BME280;4358;42.100;25.222;2023-04-02T09:57:17;99258.78;;;18.21;46.60
8641;BME280;4358;42.100;25.222;2023-04-02T10:00:07;99268.16;;;18.25;45.92
8641;BME280;4358;42.100;25.222;2023-04-02T10:02:35;99253.38;;;18.53;46.60
8641;BME280;4358;42.100;25.222;2023-04-02T10:05:03;99246.66;;;18.33;44.47
8641;BME280;4358;42.100;25.222;2023-04-02T10:07:32;99242.34;;;18.56;45.63
8641;BME280;4358;42.100;25.222;2023-04-02T10:10:15;99243.97;;;18.74;42.91
8641;BME280;4358;42.100;25.222;2023-04-02T10:12:45;99230.81;;;18.95;43.93
8641;BME280;4358;42.100;25.222;2023-04-02T10:15:16;99220.53;;;19.15;44.79
8641;BME280;4358;42.100;25.222;2023-04-02T10:17:59;99224.31;;;19.36;42.76
8641;BME280;4358;42.100;25.222;2023-04-02T10:20:28;99223.19;;;19.23;42.64
8641;BME280;4358;42.100;25.222;2023-04-02T10:22:57;99220.06;;;19.50;43.75
8641;BME280;4358;42.100;25.222;2023-04-02T10:25:26;99224.88;;;19.63;41.97
8641;BME280;4358;42.100;25.222;2023-04-02T10:28:01;99233.28;;;19.68;40.98
8641;BME280;4358;42.100;25.222;2023-04-02T10:30:37;99212.75;;;19.67;41.33
8641;BME280;4358;42.100;25.222;2023-04-02T10:33:14;99223.34;;;19.91;40.97
8641;BME280;4358;42.100;25.222;2023-04-02T10:35:49;99211.16;;;20.03;40.82
8641;BME280;4358;42.100;25.222;2023-04-02T10:38:37;99207.56;;;20.34;40.23
8641;BME280;4358;42.100;25.222;2023-04-02T10:41:18;99207.78;;;20.47;39.86
8641;BME280;4358;42.100;25.222;2023-04-02T10:46:43;99208.56;;;20.55;38.74
8641;BME280;4358;42.100;25.222;2023-04-02T10:49:22;99201.88;;;20.28;38.68
8641;BME280;4358;42.100;25.222;2023-04-02T10:51:55;99211.63;;;20.29;38.14
8641;BME280;4358;42.100;25.222;2023-04-02T10:54:34;99198.94;;;20.38;38.02
8641;BME280;4358;42.100;25.222;2023-04-02T10:57:08;99194.25;;;20.55;38.31
8641;BME280;4358;42.100;25.222;2023-04-02T10:59:39;99208.88;;;20.75;37.23
8641;BME280;4358;42.100;25.222;2023-04-02T11:02:34;99196.78;;;20.71;36.93
8641;BME280;4358;42.100;25.222;2023-04-02T11:05:14;99208.47;;;20.63;36.79
8641;BME280;4358;42.100;25.222;2023-04-02T11:07:57;99180.38;;;20.58;37.11
8641;BME280;4358;42.100;25.222;2023-04-02T11:10:25;99192.91;;;20.88;37.52
8641;BME280;4358;42.100;25.222;2023-04-02T11:12:57;99193.09;;;21.16;38.79
8641;BME280;4358;42.100;25.222;2023-04-02T11:15:27;99189.47;;;21.24;37.01
8641;BME280;4358;42.100;25.222;2023-04-02T11:17:55;99186.28;;;21.20;37.42
8641;BME280;4358;42.100;25.222;2023-04-02T11:23:30;99179.03;;;21.56;37.03
8641;BME280;4358;42.100;25.222;2023-04-02T11:26:30;99169.47;;;21.54;36.05
8641;BME280;4358;42.100;25.222;2023-04-02T11:29:05;99175.56;;;21.41;36.02
8641;BME280;4358;42.100;25.222;2023-04-02T11:31:35;99168.72;;;21.60;35.16
8641;BME280;4358;42.100;25.222;2023-04-02T11:34:02;99172.72;;;21.64;35.41
8641;BME280;4358;42.100;25.222;2023-04-02T11:39:47;99154.34;;;22.17;34.72
8641;BME280;4358;42.100;25.222;2023-04-02T11:42:24;99153.91;;;22.41;33.79
8641;BME280;4358;42.100;25.222;2023-04-02T11:44:51;99154.88;;;22.55;33.76
8641;BME280;4358;42.100;25.222;2023-04-02T11:47:19;99128.41;;;22.50;34.12
8641;BME280;4358;42.100;25.222;2023-04-02T11:50:00;99137.25;;;22.65;34.59
8641;BME280;4358;42.100;25.222;2023-04-02T11:52:35;99142.38;;;22.82;33.68
8641;BME280;4358;42.100;25.222;2023-04-02T11:55:20;99144.66;;;22.50;32.86
8641;BME280;4358;42.100;25.222;2023-04-02T11:58:25;99141.28;;;22.48;33.39
8641;BME280;4358;42.100;25.222;2023-04-02T12:01:29;99137.56;;;22.49;33.36
8641;BME280;4358;42.100;25.222;2023-04-02T12:04:32;99137.19;;;22.31;33.26
8641;BME280;4358;42.100;25.222;2023-04-02T12:07:18;99136.28;;;22.45;33.32
8641;BME280;4358;42.100;25.222;2023-04-02T12:09:52;99129.09;;;22.31;33.28
8641;BME280;4358;42.100;25.222;2023-04-02T12:12:26;99120.97;;;22.59;33.19
8641;BME280;4358;42.100;25.222;2023-04-02T12:14:55;99114.16;;;22.97;32.79
8641;BME280;4358;42.100;25.222;2023-04-02T12:17:27;99122.31;;;23.10;33.67
8641;BME280;4358;42.100;25.222;2023-04-02T12:19:56;99111.69;;;23.09;33.42
8641;BME280;4358;42.100;25.222;2023-04-02T12:22:27;99122.56;;;22.74;32.72
8641;BME280;4358;42.100;25.222;2023-04-02T12:24:57;99118.03;;;22.82;32.04
8641;BME280;4358;42.100;25.222;2023-04-02T12:27:28;99121.25;;;23.05;31.54
8641;BME280;4358;42.100;25.222;2023-04-02T12:29:58;99115.69;;;23.13;31.03
8641;BME280;4358;42.100;25.222;2023-04-02T12:32:36;99112.53;;;23.03;31.29
8641;BME280;4358;42.100;25.222;2023-04-02T12:35:04;99116.97;;;22.83;31.84
8641;BME280;4358;42.100;25.222;2023-04-02T12:37:32;99114.50;;;22.81;31.80
8641;BME280;4358;42.100;25.222;2023-04-02T12:40:01;99110.53;;;22.84;31.39
8641;BME280;4358;42.100;25.222;2023-04-02T12:42:33;99111.34;;;22.77;31.70
8641;BME280;4358;42.100;25.222;2023-04-02T12:45:02;99114.84;;;22.71;30.87
8641;BME280;4358;42.100;25.222;2023-04-02T12:47:29;99099.78;;;22.62;31.57
8641;BME280;4358;42.100;25.222;2023-04-02T12:49:57;99107.66;;;22.57;31.82
8641;BME280;4358;42.100;25.222;2023-04-02T12:52:27;99106.44;;;22.66;31.81
8641;BME280;4358;42.100;25.222;2023-04-02T12:54:56;99111.78;;;22.81;31.69
8641;BME280;4358;42.100;25.222;2023-04-02T12:57:34;99110.38;;;22.92;30.65
8641;BME280;4358;42.100;25.222;2023-04-02T13:02:47;99103.34;;;23.04;30.52
8641;BME280;4358;42.100;25.222;2023-04-02T13:05:30;99096.34;;;23.22;30.73
8641;BME280;4358;42.100;25.222;2023-04-02T13:07:58;99098.72;;;22.98;30.79
8641;BME280;4358;42.100;25.222;2023-04-02T13:10:26;99091.78;;;23.23;30.55
8641;BME280;4358;42.100;25.222;2023-04-02T13:12:56;99093.69;;;23.42;30.34
8641;BME280;4358;42.100;25.222;2023-04-02T13:15:26;99094.06;;;23.26;30.66
8641;BME280;4358;42.100;25.222;2023-04-02T13:18:06;99100.50;;;23.18;30.78
8641;BME280;4358;42.100;25.222;2023-04-02T13:20:53;99091.69;;;22.97;31.06
8641;BME280;4358;42.100;25.222;2023-04-02T13:23:32;99090.75;;;22.76;31.13
8641;BME280;4358;42.100;25.222;2023-04-02T13:26:04;99090.63;;;22.98;31.72
8641;BME280;4358;42.100;25.222;2023-04-02T13:28:38;99084.00;;;23.07;31.62
8641;BME280;4358;42.100;25.222;2023-04-02T13:31:04;99090.56;;;23.39;31.09
8641;BME280;4358;42.100;25.222;2023-04-02T13:33:31;99093.56;;;23.77;30.24
8641;BME280;4358;42.100;25.222;2023-04-02T13:35:59;99091.53;;;24.05;29.99
8641;BME280;4358;42.100;25.222;2023-04-02T13:38:26;99086.31;;;24.10;30.00
8641;BME280;4358;42.100;25.222;2023-04-02T13:40:53;99079.84;;;23.85;30.09
8641;BME280;4358;42.100;25.222;2023-04-02T13:43:20;99082.94;;;23.69;30.39
8641;BME280;4358;42.100;25.222;2023-04-02T13:45:50;99081.09;;;23.76;31.45
8641;BME280;4358;42.100;25.222;2023-04-02T13:48:18;99078.91;;;23.45;30.35
8641;BME280;4358;42.100;25.222;2023-04-02T13:50:50;99081.84;;;23.43;30.47